sensor_id;sensor_type;location;lat;lon;timestamp;pressure;altitude;pressure_sealevel;temperature;humidity
68986;BME280;56035;37.534;-122.308;2023-03-04T00:02:03;101344.22;;;12.12;98.15
68986;BME280;56035;37.534;-122.308;2023-03-04T00:04:29;101351.91;;;12.10;98.00
68986;BME280;56035;37.534;-122.308;2023-03-04T00:06:55;101338.91;;;11.99;96.17
68986;BME280;56035;37.534;-122.308;2023-03-04T00:09:22;101339.03;;;12.04;94.84
68986;BME280;56035;37.534;-122.308;2023-03-04T00:11:48;101338.44;;;12.02;93.02
68986;BME280;56035;37.534;-122.308;2023-03-04T00:14:14;101351.50;;;11.94;92.94
68986;BME280;56035;37.534;-122.308;2023-03-04T00:16:40;101359.44;;;11.91;91.81
68986;BME280;56035;37.534;-122.308;2023-03-04T00:19:07;101356.97;;;11.83;91.01
68986;BME280;56035;37.534;-122.308;2023-03-04T00:21:33;101359.34;;;11.79;91.56
68986;BME280;56035;37.534;-122.308;2023-03-04T00:23:59;101351.75;;;11.63;92.80
68986;BME280;56035;37.534;-122.308;2023-03-04T00:26:25;101359.34;;;11.67;93.51
68986;BME280;56035;37.534;-122.308;2023-03-04T00:28:52;101356.88;;;11.59;92.37
68986;BME280;56035;37.534;-122.308;2023-03-04T00:31:18;101360.56;;;11.41;91.45
68986;BME280;56035;37.534;-122.308;2023-03-04T00:33:44;101354.13;;;11.29;92.05
68986;BME280;56035;37.534;-122.308;2023-03-04T00:36:10;101353.31;;;11.10;91.84
68986;BME280;56035;37.534;-122.308;2023-03-04T00:38:38;101347.97;;;10.97;94.26
68986;BME280;56035;37.534;-122.308;2023-03-04T00:41:04;101346.13;;;10.91;95.63
68986;BME280;56035;37.534;-122.308;2023-03-04T00:43:30;101346.53;;;10.76;95.48
68986;BME280;56035;37.534;-122.308;2023-03-04T00:45:57;101351.84;;;10.71;94.80
68986;BME280;56035;37.534;-122.308;2023-03-04T00:48:24;101351.22;;;10.50;94.56
68986;BME280;56035;37.534;-122.308;2023-03-04T00:50:51;101350.00;;;10.46;96.40
68986;BME280;56035;37.534;-122.308;2023-03-04T00:53:19;101349.84;;;10.41;97.45
68986;BME280;56035;37.534;-122.308;2023-03-04T00:55:45;101342.09;;;10.31;94.42
68986;BME280;56035;37.534;-122.308;2023-03-04T00:58:11;101343.47;;;10.16;98.07
68986;BME280;56035;37.534;-122.308;2023-03-04T01:00:37;101346.06;;;10.11;96.16
68986;BME280;56035;37.534;-122.308;2023-03-04T01:03:03;101343.88;;;9.94;92.92
68986;BME280;56035;37.534;-122.308;2023-03-04T01:05:29;101353.06;;;9.81;95.25
68986;BME280;56035;37.534;-122.308;2023-03-04T01:07:58;101352.22;;;9.81;97.66
68986;BME280;56035;37.534;-122.308;2023-03-04T01:10:24;101357.78;;;9.68;94.99
68986;BME280;56035;37.534;-122.308;2023-03-04T01:12:51;101368.69;;;9.56;94.07
68986;BME280;56035;37.534;-122.308;2023-03-04T01:15:17;101364.72;;;9.45;94.94
68986;BME280;56035;37.534;-122.308;2023-03-04T01:17:43;101365.41;;;9.34;98.75
68986;BME280;56035;37.534;-122.308;2023-03-04T01:20:10;101358.91;;;9.22;98.55
68986;BME280;56035;37.534;-122.308;2023-03-04T01:22:37;101360.84;;;9.14;100.00
68986;BME280;56035;37.534;-122.308;2023-03-04T01:25:04;101367.63;;;9.05;100.00
68986;BME280;56035;37.534;-122.308;2023-03-04T01:27:30;101370.22;;;9.00;100.00
68986;BME280;56035;37.534;-122.308;2023-03-04T01:29:56;101360.91;;;8.95;100.00
68986;BME280;56035;37.534;-122.308;2023-03-04T01:32:22;101369.84;;;8.83;100.00
68986;BME280;56035;37.534;-122.308;2023-03-04T01:34:48;101375.78;;;8.74;100.00
68986;BME280;56035;37.534;-122.308;2023-03-04T01:37:15;101368.63;;;8.59;100.00
68986;BME280;56035;37.534;-122.308;2023-03-04T01:39:41;101374.97;;;8.47;100.00
68986;BME280;56035;37.534;-122.308;2023-03-04T01:42:29;101372.03;;;8.41;100.00
68986;BME280;56035;37.534;-122.308;2023-03-04T01:44:56;101369.47;;;8.33;100.00
68986;BME280;56035;37.534;-122.308;2023-03-04T01:47:29;101368.44;;;8.28;100.00
68986;BME280;56035;37.534;-122.308;2023-03-04T01:49:57;101368.03;;;8.17;100.00
68986;BME280;56035;37.534;-122.308;2023-03-04T01:52:26;101366.31;;;8.10;100.00
68986;BME280;56035;37.534;-122.308;2023-03-04T01:54:53;101364.81;;;8.01;100.00
68986;BME280;56035;37.534;-122.308;2023-03-04T01:57:21;101366.13;;;7.98;100.00
68986;BME280;56035;37.534;-122.308;2023-03-04T02:00:16;101354.69;;;7.88;100.00
68986;BME280;56035;37.534;-122.308;2023-03-04T02:02:45;101359.34;;;7.81;100.00
68986;BME280;56035;37.534;-122.308;2023-03-04T02:05:12;101353.84;;;7.74;100.00
68986;BME280;56035;37.534;-122.308;2023-03-04T02:07:41;101372.00;;;7.68;100.00
68986;BME280;56035;37.534;-122.308;2023-03-04T02:10:09;101368.78;;;7.65;100.00
68986;BME280;56035;37.534;-122.308;2023-03-04T02:12:35;101371.75;;;7.63;100.00
68986;BME280;56035;37.534;-122.308;2023-03-04T02:15:02;101369.66;;;7.59;100.00
68986;BME280;56035;37.534;-122.308;2023-03-04T02:17:28;101376.16;;;7.51;100.00
68986;BME280;56035;37.534;-122.308;2023-03-04T02:23:29;101371.03;;;7.35;100.00
68986;BME280;56035;37.534;-122.308;2023-03-04T02:26:18;101375.44;;;7.29;100.00
68986;BME280;56035;37.534;-122.308;2023-03-04T02:28:47;101364.69;;;7.21;100.00
68986;BME280;56035;37.534;-122.308;2023-03-04T02:33:46;101369.44;;;7.06;100.00
68986;BME280;56035;37.534;-122.308;2023-03-04T02:36:12;101373.66;;;7.01;100.00
68986;BME280;56035;37.534;-122.308;2023-03-04T02:38:38;101380.38;;;6.99;100.00
68986;BME280;56035;37.534;-122.308;2023-03-04T02:41:05;101372.97;;;6.93;100.00
68986;BME280;56035;37.534;-122.308;2023-03-04T02:43:34;101374.88;;;6.92;100.00
68986;BME280;56035;37.534;-122.308;2023-03-04T02:46:00;101367.91;;;6.90;100.00
68986;BME280;56035;37.534;-122.308;2023-03-04T02:48:26;101378.84;;;6.90;100.00
68986;BME280;56035;37.534;-122.308;2023-03-04T02:50:53;101366.44;;;6.87;100.00
68986;BME280;56035;37.534;-122.308;2023-03-04T02:53:20;101370.19;;;6.86;100.00
68986;BME280;56035;37.534;-122.308;2023-03-04T02:55:47;101383.28;;;6.84;100.00
68986;BME280;56035;37.534;-122.308;2023-03-04T02:58:13;101386.00;;;6.84;100.00
68986;BME280;56035;37.534;-122.308;2023-03-04T03:00:40;101394.84;;;6.86;100.00
68986;BME280;56035;37.534;-122.308;2023-03-04T03:03:07;101390.25;;;6.87;100.00
68986;BME280;56035;37.534;-122.308;2023-03-04T03:05:33;101400.16;;;6.88;100.00
68986;BME280;56035;37.534;-122.308;2023-03-04T03:08:00;101406.69;;;6.87;100.00
68986;BME280;56035;37.534;-122.308;2023-03-04T03:10:26;101406.03;;;6.85;100.00
68986;BME280;56035;37.534;-122.308;2023-03-04T03:12:52;101412.56;;;6.84;100.00
68986;BME280;56035;37.534;-122.308;2023-03-04T03:15:19;101413.59;;;6.83;100.00
68986;BME280;56035;37.534;-122.308;2023-03-04T03:17:45;101410.84;;;6.83;100.00
68986;BME280;56035;37.534;-122.308;2023-03-04T03:20:12;101404.53;;;6.82;100.00
68986;BME280;56035;37.534;-122.308;2023-03-04T03:22:39;101399.47;;;6.79;100.00
68986;BME280;56035;37.534;-122.308;2023-03-04T03:25:07;101401.34;;;6.78;100.00
68986;BME280;56035;37.534;-122.308;2023-03-04T03:27:34;101406.16;;;6.76;100.00
68986;BME280;56035;37.534;-122.308;2023-03-04T03:30:00;101406.38;;;6.75;100.00
68986;BME280;56035;37.534;-122.308;2023-03-04T03:32:26;101400.47;;;6.71;100.00
68986;BME280;56035;37.534;-122.308;2023-03-04T03:34:52;101402.78;;;6.68;100.00
68986;BME280;56035;37.534;-122.308;2023-03-04T03:37:18;101400.22;;;6.66;100.00
68986;BME280;56035;37.534;-122.308;2023-03-04T03:39:45;101409.03;;;6.62;100.00
68986;BME280;56035;37.534;-122.308;2023-03-04T03:42:11;101402.06;;;6.59;100.00
68986;BME280;56035;37.534;-122.308;2023-03-04T03:44:37;101396.38;;;6.54;100.00
68986;BME280;56035;37.534;-122.308;2023-03-04T03:47:03;101391.28;;;6.51;100.00
68986;BME280;56035;37.534;-122.308;2023-03-04T03:49:30;101399.69;;;6.49;100.00
68986;BME280;56035;37.534;-122.308;2023-03-04T03:51:56;101402.63;;;6.48;100.00
68986;BME280;56035;37.534;-122.308;2023-03-04T03:54:22;101389.34;;;6.45;100.00
68986;BME280;56035;37.534;-122.308;2023-03-04T03:56:48;101389.34;;;6.45;100.00
68986;BME280;56035;37.534;-122.308;2023-03-04T03:59:15;101400.88;;;6.40;100.00
68986;BME280;56035;37.534;-122.308;2023-03-04T04:01:41;101394.78;;;6.38;100.00
68986;BME280;56035;37.534;-122.308;2023-03-04T04:04:07;101389.03;;;6.33;100.00
68986;BME280;56035;37.534;-122.308;2023-03-04T04:06:33;101393.00;;;6.30;100.00
68986;BME280;56035;37.534;-122.308;2023-03-04T04:09:00;101387.94;;;6.27;100.00
68986;BME280;56035;37.534;-122.308;2023-03-04T04:11:26;101386.06;;;6.28;100.00
68986;BME280;56035;37.534;-122.308;2023-03-04T04:13:52;101378.44;;;6.23;100.00
68986;BME280;56035;37.534;-122.308;2023-03-04T04:16:19;101369.59;;;6.21;100.00
68986;BME280;56035;37.534;-122.308;2023-03-04T04:18:45;101372.72;;;6.18;100.00
68986;BME280;56035;37.534;-122.308;2023-03-04T04:21:13;101377.94;;;6.13;100.00
68986;BME280;56035;37.534;-122.308;2023-03-04T04:23:39;101375.81;;;6.08;100.00
68986;BME280;56035;37.534;-122.308;2023-03-04T04:26:05;101373.47;;;6.05;100.00
68986;BME280;56035;37.534;-122.308;2023-03-04T04:28:32;101375.75;;;6.02;100.00
68986;BME280;56035;37.534;-122.308;2023-03-04T04:30:59;101379.72;;;5.99;100.00
68986;BME280;56035;37.534;-122.308;2023-03-04T04:33:25;101368.13;;;5.97;100.00
68986;BME280;56035;37.534;-122.308;2023-03-04T04:35:51;101368.50;;;5.94;100.00
68986;BME280;56035;37.534;-122.308;2023-03-04T04:38:18;101363.03;;;5.94;100.00
68986;BME280;56035;37.534;-122.308;2023-03-04T04:40:47;101360.03;;;5.89;100.00
68986;BME280;56035;37.534;-122.308;2023-03-04T04:43:13;101370.13;;;5.89;100.00
68986;BME280;56035;37.534;-122.308;2023-03-04T04:45:40;101367.56;;;5.87;100.00
68986;BME280;56035;37.534;-122.308;2023-03-04T04:48:06;101352.41;;;5.84;100.00
68986;BME280;56035;37.534;-122.308;2023-03-04T04:50:33;101348.81;;;5.84;100.00
68986;BME280;56035;37.534;-122.308;2023-03-04T04:52:59;101352.16;;;5.79;100.00
68986;BME280;56035;37.534;-122.308;2023-03-04T04:55:25;101342.47;;;5.77;100.00
68986;BME280;56035;37.534;-122.308;2023-03-04T04:57:52;101353.00;;;5.80;100.00
68986;BME280;56035;37.534;-122.308;2023-03-04T05:00:38;101352.94;;;5.73;100.00
68986;BME280;56035;37.534;-122.308;2023-03-04T05:03:05;101349.56;;;5.71;100.00
68986;BME280;56035;37.534;-122.308;2023-03-04T05:05:31;101354.00;;;5.72;100.00
68986;BME280;56035;37.534;-122.308;2023-03-04T05:07:57;101344.91;;;5.72;100.00
68986;BME280;56035;37.534;-122.308;2023-03-04T05:10:23;101357.13;;;5.69;100.00
68986;BME280;56035;37.534;-122.308;2023-03-04T05:12:49;101349.09;;;5.68;100.00
68986;BME280;56035;37.534;-122.308;2023-03-04T05:15:15;101341.09;;;5.66;100.00
68986;BME280;56035;37.534;-122.308;2023-03-04T05:17:42;101333.09;;;5.64;100.00
68986;BME280;56035;37.534;-122.308;2023-03-04T05:20:08;101344.22;;;5.63;100.00
68986;BME280;56035;37.534;-122.308;2023-03-04T05:22:35;101351.78;;;5.61;100.00
68986;BME280;56035;37.534;-122.308;2023-03-04T05:25:02;101350.09;;;5.60;100.00
68986;BME280;56035;37.534;-122.308;2023-03-04T05:27:28;101352.16;;;5.58;100.00
68986;BME280;56035;37.534;-122.308;2023-03-04T05:29:54;101348.78;;;5.56;100.00
68986;BME280;56035;37.534;-122.308;2023-03-04T05:32:24;101351.25;;;5.51;100.00
68986;BME280;56035;37.534;-122.308;2023-03-04T05:34:50;101358.16;;;5.47;100.00
68986;BME280;56035;37.534;-122.308;2023-03-04T05:37:16;101342.53;;;5.40;100.00
68986;BME280;56035;37.534;-122.308;2023-03-04T05:39:43;101348.00;;;5.40;100.00
68986;BME280;56035;37.534;-122.308;2023-03-04T05:42:09;101364.78;;;5.37;100.00
68986;BME280;56035;37.534;-122.308;2023-03-04T05:44:35;101372.50;;;5.34;100.00
68986;BME280;56035;37.534;-122.308;2023-03-04T05:47:01;101368.06;;;5.33;100.00
68986;BME280;56035;37.534;-122.308;2023-03-04T05:49:27;101368.94;;;5.33;100.00
68986;BME280;56035;37.534;-122.308;2023-03-04T05:51:53;101378.91;;;5.26;100.00
68986;BME280;56035;37.534;-122.308;2023-03-04T05:54:20;101385.88;;;5.29;100.00
68986;BME280;56035;37.534;-122.308;2023-03-04T05:56:46;101374.13;;;5.28;100.00
68986;BME280;56035;37.534;-122.308;2023-03-04T05:59:12;101369.69;;;5.27;100.00
68986;BME280;56035;37.534;-122.308;2023-03-04T06:01:38;101360.84;;;5.25;100.00
68986;BME280;56035;37.534;-122.308;2023-03-04T06:04:05;101355.75;;;5.22;100.00
68986;BME280;56035;37.534;-122.308;2023-03-04T06:06:31;101365.00;;;5.21;100.00
68986;BME280;56035;37.534;-122.308;2023-03-04T06:08:57;101369.16;;;5.17;100.00
68986;BME280;56035;37.534;-122.308;2023-03-04T06:11:24;101374.81;;;5.15;100.00
68986;BME280;56035;37.534;-122.308;2023-03-04T06:13:50;101366.81;;;5.14;100.00
68986;BME280;56035;37.534;-122.308;2023-03-04T06:16:16;101356.28;;;5.11;100.00
68986;BME280;56035;37.534;-122.308;2023-03-04T06:18:42;101352.88;;;5.09;100.00
68986;BME280;56035;37.534;-122.308;2023-03-04T06:21:08;101344.03;;;5.07;100.00
68986;BME280;56035;37.534;-122.308;2023-03-04T06:23:35;101343.38;;;5.05;100.00
68986;BME280;56035;37.534;-122.308;2023-03-04T06:26:01;101334.53;;;5.03;100.00
68986;BME280;56035;37.534;-122.308;2023-03-04T06:28:27;101331.78;;;5.03;100.00
68986;BME280;56035;37.534;-122.308;2023-03-04T06:30:55;101332.63;;;5.03;100.00
68986;BME280;56035;37.534;-122.308;2023-03-04T06:33:21;101327.56;;;5.00;100.00
68986;BME280;56035;37.534;-122.308;2023-03-04T06:35:52;101324.81;;;5.00;100.00
68986;BME280;56035;37.534;-122.308;2023-03-04T06:38:18;101332.16;;;5.00;100.00
68986;BME280;56035;37.534;-122.308;2023-03-04T06:40:44;101327.56;;;5.00;100.00
68986;BME280;56035;37.534;-122.308;2023-03-04T06:43:10;101321.25;;;5.00;100.00
68986;BME280;56035;37.534;-122.308;2023-03-04T06:45:37;101317.28;;;5.02;100.00
68986;BME280;56035;37.534;-122.308;2023-03-04T06:48:03;101316.63;;;5.00;100.00
68986;BME280;56035;37.534;-122.308;2023-03-04T06:50:30;101316.00;;;4.98;100.00
68986;BME280;56035;37.534;-122.308;2023-03-04T06:52:56;101315.16;;;4.98;100.00
68986;BME280;56035;37.534;-122.308;2023-03-04T06:55:23;101322.69;;;4.96;100.00
68986;BME280;56035;37.534;-122.308;2023-03-04T06:57:49;101320.78;;;4.96;100.00
68986;BME280;56035;37.534;-122.308;2023-03-04T07:00:16;101313.44;;;4.97;100.00
68986;BME280;56035;37.534;-122.308;2023-03-04T07:02:42;101310.72;;;4.97;100.00
68986;BME280;56035;37.534;-122.308;2023-03-04T07:05:10;101309.41;;;4.92;100.00
68986;BME280;56035;37.534;-122.308;2023-03-04T07:07:36;101294.25;;;4.90;100.00
68986;BME280;56035;37.534;-122.308;2023-03-04T07:10:04;101299.69;;;4.90;100.00
68986;BME280;56035;37.534;-122.308;2023-03-04T07:12:30;101306.22;;;4.89;100.00
68986;BME280;56035;37.534;-122.308;2023-03-04T07:14:57;101298.41;;;4.86;100.00
68986;BME280;56035;37.534;-122.308;2023-03-04T07:17:23;101299.63;;;4.83;100.00
68986;BME280;56035;37.534;-122.308;2023-03-04T07:19:49;101297.47;;;4.79;100.00
68986;BME280;56035;37.534;-122.308;2023-03-04T07:22:15;101313.47;;;4.82;100.00
68986;BME280;56035;37.534;-122.308;2023-03-04T07:24:42;101309.06;;;4.81;100.00
68986;BME280;56035;37.534;-122.308;2023-03-04T07:27:08;101299.75;;;4.75;100.00
68986;BME280;56035;37.534;-122.308;2023-03-04T07:29:34;101286.75;;;4.77;100.00
68986;BME280;56035;37.534;-122.308;2023-03-04T07:32:00;101298.44;;;4.71;100.00
68986;BME280;56035;37.534;-122.308;2023-03-04T07:34:27;101288.53;;;4.70;100.00
68986;BME280;56035;37.534;-122.308;2023-03-04T07:36:53;101294.59;;;4.65;100.00
68986;BME280;56035;37.534;-122.308;2023-03-04T07:39:19;101293.06;;;4.63;100.00
68986;BME280;56035;37.534;-122.308;2023-03-04T07:41:45;101280.84;;;4.59;100.00
68986;BME280;56035;37.534;-122.308;2023-03-04T07:44:12;101278.50;;;4.56;100.00
68986;BME280;56035;37.534;-122.308;2023-03-04T07:46:38;101278.69;;;4.54;100.00
68986;BME280;56035;37.534;-122.308;2023-03-04T07:49:04;101270.88;;;4.51;100.00
68986;BME280;56035;37.534;-122.308;2023-03-04T07:51:31;101271.28;;;4.48;100.00
68986;BME280;56035;37.534;-122.308;2023-03-04T07:53:59;101272.50;;;4.45;100.00
68986;BME280;56035;37.534;-122.308;2023-03-04T07:56:28;101280.22;;;4.42;100.00
68986;BME280;56035;37.534;-122.308;2023-03-04T07:58:54;101280.75;;;4.37;100.00
68986;BME280;56035;37.534;-122.308;2023-03-04T08:01:26;101274.47;;;4.37;100.00
68986;BME280;56035;37.534;-122.308;2023-03-04T08:03:53;101275.03;;;4.32;100.00
68986;BME280;56035;37.534;-122.308;2023-03-04T08:06:20;101271.94;;;4.35;100.00
68986;BME280;56035;37.534;-122.308;2023-03-04T08:08:47;101265.81;;;4.33;100.00
68986;BME280;56035;37.534;-122.308;2023-03-04T08:11:17;101266.88;;;4.32;100.00
68986;BME280;56035;37.534;-122.308;2023-03-04T08:13:44;101265.16;;;4.31;100.00
68986;BME280;56035;37.534;-122.308;2023-03-04T08:16:16;101258.22;;;4.29;100.00
68986;BME280;56035;37.534;-122.308;2023-03-04T08:18:44;101251.03;;;4.28;100.00
68986;BME280;56035;37.534;-122.308;2023-03-04T08:21:11;101251.88;;;4.28;100.00
68986;BME280;56035;37.534;-122.308;2023-03-04T08:23:38;101257.75;;;4.25;100.00
68986;BME280;56035;37.534;-122.308;2023-03-04T08:26:08;101254.34;;;4.23;100.00
68986;BME280;56035;37.534;-122.308;2023-03-04T08:28:35;101252.84;;;4.20;100.00
68986;BME280;56035;37.534;-122.308;2023-03-04T08:31:01;101245.25;;;4.16;100.00
68986;BME280;56035;37.534;-122.308;2023-03-04T08:33:28;101253.78;;;4.13;100.00
68986;BME280;56035;37.534;-122.308;2023-03-04T08:35:54;101270.31;;;4.11;100.00
68986;BME280;56035;37.534;-122.308;2023-03-04T08:38:20;101269.84;;;4.08;100.00
68986;BME280;56035;37.534;-122.308;2023-03-04T08:40:54;101257.25;;;4.07;100.00
68986;BME280;56035;37.534;-122.308;2023-03-04T08:43:21;101257.44;;;4.05;100.00
68986;BME280;56035;37.534;-122.308;2023-03-04T08:45:48;101259.16;;;4.06;100.00
68986;BME280;56035;37.534;-122.308;2023-03-04T08:48:15;101261.22;;;4.04;100.00
68986;BME280;56035;37.534;-122.308;2023-03-04T08:50:43;101263.25;;;4.02;100.00
68986;BME280;56035;37.534;-122.308;2023-03-04T08:53:10;101257.16;;;4.00;100.00
68986;BME280;56035;37.534;-122.308;2023-03-04T08:55:40;101262.41;;;4.02;100.00
68986;BME280;56035;37.534;-122.308;2023-03-04T08:58:07;101256.50;;;3.98;100.00
68986;BME280;56035;37.534;-122.308;2023-03-04T09:00:34;101253.78;;;3.98;100.00
68986;BME280;56035;37.534;-122.308;2023-03-04T09:03:01;101257.72;;;3.95;100.00
68986;BME280;56035;37.534;-122.308;2023-03-04T09:05:29;101269.13;;;3.99;100.00
68986;BME280;56035;37.534;-122.308;2023-03-04T09:07:55;101261.94;;;3.98;100.00
68986;BME280;56035;37.534;-122.308;2023-03-04T09:10:21;101269.84;;;3.93;100.00
68986;BME280;56035;37.534;-122.308;2023-03-04T09:12:47;101254.03;;;3.88;100.00
68986;BME280;56035;37.534;-122.308;2023-03-04T09:15:14;101249.63;;;3.87;100.00
68986;BME280;56035;37.534;-122.308;2023-03-04T09:17:40;101247.06;;;3.86;100.00
68986;BME280;56035;37.534;-122.308;2023-03-04T09:20:08;101244.09;;;3.81;100.00
68986;BME280;56035;37.534;-122.308;2023-03-04T09:22:36;101244.25;;;3.79;100.00
68986;BME280;56035;37.534;-122.308;2023-03-04T09:25:03;101246.34;;;3.77;100.00
68986;BME280;56035;37.534;-122.308;2023-03-04T09:27:29;101250.47;;;3.73;100.00
68986;BME280;56035;37.534;-122.308;2023-03-04T09:29:55;101243.88;;;3.67;100.00
68986;BME280;56035;37.534;-122.308;2023-03-04T09:32:22;101243.03;;;3.67;100.00
68986;BME280;56035;37.534;-122.308;2023-03-04T09:34:48;101245.09;;;3.65;100.00
68986;BME280;56035;37.534;-122.308;2023-03-04T09:37:14;101233.13;;;3.66;100.00
68986;BME280;56035;37.534;-122.308;2023-03-04T09:39:40;101237.59;;;3.67;100.00
68986;BME280;56035;37.534;-122.308;2023-03-04T09:42:09;101231.94;;;3.68;100.00
68986;BME280;56035;37.534;-122.308;2023-03-04T09:44:40;101225.63;;;3.68;100.00
68986;BME280;56035;37.534;-122.308;2023-03-04T09:47:13;101222.53;;;3.71;100.00
68986;BME280;56035;37.534;-122.308;2023-03-04T09:49:43;101215.22;;;3.71;100.00
68986;BME280;56035;37.534;-122.308;2023-03-04T09:52:36;101211.28;;;3.74;100.00
68986;BME280;56035;37.534;-122.308;2023-03-04T09:55:16;101202.91;;;3.75;100.00
68986;BME280;56035;37.534;-122.308;2023-03-04T10:00:46;101196.91;;;3.80;100.00
68986;BME280;56035;37.534;-122.308;2023-03-04T10:03:18;101187.88;;;3.80;100.00
68986;BME280;56035;37.534;-122.308;2023-03-04T10:05:55;101173.69;;;3.84;100.00
68986;BME280;56035;37.534;-122.308;2023-03-04T10:11:36;101175.84;;;3.89;100.00
68986;BME280;56035;37.534;-122.308;2023-03-04T10:14:31;101181.13;;;3.90;100.00
68986;BME280;56035;37.534;-122.308;2023-03-04T10:17:30;101164.38;;;3.93;100.00
68986;BME280;56035;37.534;-122.308;2023-03-04T10:20:26;101163.34;;;3.94;100.00
68986;BME280;56035;37.534;-122.308;2023-03-04T10:23:04;101162.50;;;3.94;100.00
68986;BME280;56035;37.534;-122.308;2023-03-04T10:25:33;101167.56;;;3.97;100.00
68986;BME280;56035;37.534;-122.308;2023-03-04T10:28:17;101169.25;;;3.98;100.00
68986;BME280;56035;37.534;-122.308;2023-03-04T10:30:57;101169.94;;;4.00;100.00
68986;BME280;56035;37.534;-122.308;2023-03-04T10:33:33;101157.97;;;4.01;100.00
68986;BME280;56035;37.534;-122.308;2023-03-04T10:38:38;101147.53;;;4.05;100.00
68986;BME280;56035;37.534;-122.308;2023-03-04T10:41:16;101151.97;;;4.06;100.00
68986;BME280;56035;37.534;-122.308;2023-03-04T10:43:43;101161.47;;;4.10;100.00
68986;BME280;56035;37.534;-122.308;2023-03-04T10:46:14;101168.22;;;4.14;100.00
68986;BME280;56035;37.534;-122.308;2023-03-04T10:48:42;101159.66;;;4.17;100.00
68986;BME280;56035;37.534;-122.308;2023-03-04T10:51:10;101161.16;;;4.19;100.00
68986;BME280;56035;37.534;-122.308;2023-03-04T10:53:40;101147.31;;;4.21;100.00
68986;BME280;56035;37.534;-122.308;2023-03-04T10:56:39;101141.88;;;4.21;100.00
68986;BME280;56035;37.534;-122.308;2023-03-04T11:01:45;101117.81;;;4.10;100.00
68986;BME280;56035;37.534;-122.308;2023-03-04T11:04:18;101099.88;;;4.01;100.00
68986;BME280;56035;37.534;-122.308;2023-03-04T11:06:45;101108.22;;;4.14;100.00
68986;BME280;56035;37.534;-122.308;2023-03-04T11:09:23;101117.06;;;4.16;100.00
68986;BME280;56035;37.534;-122.308;2023-03-04T11:11:51;101106.38;;;3.99;100.00
68986;BME280;56035;37.534;-122.308;2023-03-04T11:14:24;101103.53;;;4.08;100.00
68986;BME280;56035;37.534;-122.308;2023-03-04T11:17:15;101115.81;;;4.18;100.00
68986;BME280;56035;37.534;-122.308;2023-03-04T11:19:44;101104.66;;;4.13;100.00
68986;BME280;56035;37.534;-122.308;2023-03-04T11:22:21;101107.84;;;4.17;100.00
68986;BME280;56035;37.534;-122.308;2023-03-04T11:25:03;101114.13;;;4.17;100.00
68986;BME280;56035;37.534;-122.308;2023-03-04T11:27:40;101098.63;;;4.18;100.00
68986;BME280;56035;37.534;-122.308;2023-03-04T11:33:25;101090.63;;;4.16;100.00
68986;BME280;56035;37.534;-122.308;2023-03-04T11:38:53;101103.69;;;4.21;100.00
68986;BME280;56035;37.534;-122.308;2023-03-04T11:41:37;101118.16;;;4.21;100.00
68986;BME280;56035;37.534;-122.308;2023-03-04T11:44:06;101112.00;;;4.13;100.00
68986;BME280;56035;37.534;-122.308;2023-03-04T11:46:39;101133.06;;;4.19;100.00
68986;BME280;56035;37.534;-122.308;2023-03-04T11:52:27;101124.19;;;4.32;100.00
68986;BME280;56035;37.534;-122.308;2023-03-04T11:55:04;101098.75;;;4.31;100.00
68986;BME280;56035;37.534;-122.308;2023-03-04T12:03:22;101095.41;;;4.29;100.00
68986;BME280;56035;37.534;-122.308;2023-03-04T12:08:55;101099.16;;;4.28;100.00
68986;BME280;56035;37.534;-122.308;2023-03-04T12:14:31;101095.41;;;4.29;100.00
68986;BME280;56035;37.534;-122.308;2023-03-04T12:20:04;101106.38;;;4.36;100.00
68986;BME280;56035;37.534;-122.308;2023-03-04T12:28:34;101099.44;;;4.33;100.00
68986;BME280;56035;37.534;-122.308;2023-03-04T12:31:29;101077.75;;;4.25;100.00
68986;BME280;56035;37.534;-122.308;2023-03-04T12:37:29;101104.78;;;4.41;100.00
68986;BME280;56035;37.534;-122.308;2023-03-04T12:40:26;101111.91;;;4.42;100.00
68986;BME280;56035;37.534;-122.308;2023-03-04T12:43:21;101119.88;;;4.44;100.00
68986;BME280;56035;37.534;-122.308;2023-03-04T12:51:29;101095.16;;;4.45;100.00
68986;BME280;56035;37.534;-122.308;2023-03-04T12:57:13;101081.16;;;4.34;100.00
68986;BME280;56035;37.534;-122.308;2023-03-04T13:05:27;101076.56;;;4.34;100.00
68986;BME280;56035;37.534;-122.308;2023-03-04T13:11:02;101053.44;;;4.30;100.00
68986;BME280;56035;37.534;-122.308;2023-03-04T13:14:00;101050.25;;;4.27;100.00
68986;BME280;56035;37.534;-122.308;2023-03-04T13:16:30;101045.00;;;4.25;100.00
68986;BME280;56035;37.534;-122.308;2023-03-04T13:18:58;101044.59;;;4.28;100.00
68986;BME280;56035;37.534;-122.308;2023-03-04T13:21:30;101049.28;;;4.34;100.00
68986;BME280;56035;37.534;-122.308;2023-03-04T13:24:01;101058.13;;;4.36;100.00
68986;BME280;56035;37.534;-122.308;2023-03-04T13:26:46;101046.75;;;4.33;100.00
68986;BME280;56035;37.534;-122.308;2023-03-04T13:31:59;101059.47;;;4.47;100.00
68986;BME280;56035;37.534;-122.308;2023-03-04T13:35:00;101057.81;;;4.46;100.00
68986;BME280;56035;37.534;-122.308;2023-03-04T13:37:36;101068.41;;;4.56;100.00
68986;BME280;56035;37.534;-122.308;2023-03-04T13:42:52;101056.03;;;4.60;100.00
68986;BME280;56035;37.534;-122.308;2023-03-04T13:47:54;101051.31;;;4.68;100.00